map of KMJ home
KMJ - Airport
Location
City:  Kumamoto, Kumamoto, Japan
Near (Alt.):Mashiki
Name:Kumamoto Airport
ICAO:RJFT
IATA:KMJ

Details
Type:Airport (Aerodrome, Airfield)
Use:Public/Civil, Military
Latitude:3250'14"N (32.837319)
Longitude:13051'18"E (130.855050)
Datum:WGS 1984
Elevation:642 ft (196 m)
Variation:7.31W (WMM2015 magnetic declination)
-0.08 annual change
Runways:1
Longest:9840 × 150 ft (2999 × 45.5 m), paved

Time
Time Zone:UTC+9
Local Time:

Weather
METAR:RJFT 180500Z VRB04KT 9999 FEW035 10/M03 Q1024
TAF:RJFT 172315Z 1800/1906 02003KT 9999 FEW040
BECMG 1801/1803 28005KT
BECMG 1808/1810 06003KT

Related Locations
Nearby:
Farthest:SSMT: 12277 mi / 19759 km
Mostardas, RS, BR

Find:

   beyond  
but within

Other Information
Maps:
NOTAMs:
Links:
Sources:

  
  • flag of Japan
  • flag of Kumamoto
  • flag of Kumamoto
  

Sectional Chart

Flight Planning
at skyvector.com

Satellite Image

Google Maps Satellite view

 

Copyright © 2004-2019 Karl L. Swartz. All rights reserved.
The Great Circle Mapper name and logo are trademarks of the Great Circle Mapper.
All other trademarks mentioned herein belong to their respective owners.
Please see credits for attibutions and further copyright information.

  Follow gcmap on Facebook Follow gcmap on Twitter Follow gcmap on Google+ GCmap on LinkedIn

hCard Microformat

Geo Microformat